sensor_id;sensor_type;location;lat;lon;timestamp;P1;durP1;ratioP1;P2;durP2;ratioP2
28587;SDS011;15787;49.662;10.162;2023-05-08T00:01:19;7.75;;;4.95;;
28587;SDS011;15787;49.662;10.162;2023-05-08T00:03:52;7.40;;;5.30;;
28587;SDS011;15787;49.662;10.162;2023-05-08T00:06:26;8.98;;;5.60;;
28587;SDS011;15787;49.662;10.162;2023-05-08T00:08:59;8.60;;;5.47;;
28587;SDS011;15787;49.662;10.162;2023-05-08T00:11:32;9.00;;;5.88;;
28587;SDS011;15787;49.662;10.162;2023-05-08T00:14:05;6.95;;;5.55;;
28587;SDS011;15787;49.662;10.162;2023-05-08T00:16:38;8.23;;;5.97;;
28587;SDS011;15787;49.662;10.162;2023-05-08T00:19:11;10.43;;;6.57;;
28587;SDS011;15787;49.662;10.162;2023-05-08T00:21:45;9.65;;;6.05;;
28587;SDS011;15787;49.662;10.162;2023-05-08T00:24:18;8.73;;;6.32;;
28587;SDS011;15787;49.662;10.162;2023-05-08T00:26:51;8.40;;;6.15;;
28587;SDS011;15787;49.662;10.162;2023-05-08T00:29:24;8.52;;;5.88;;
28587;SDS011;15787;49.662;10.162;2023-05-08T00:31:57;9.73;;;6.20;;
28587;SDS011;15787;49.662;10.162;2023-05-08T00:34:30;9.93;;;5.57;;
28587;SDS011;15787;49.662;10.162;2023-05-08T00:37:04;10.45;;;6.00;;
28587;SDS011;15787;49.662;10.162;2023-05-08T00:39:37;9.43;;;6.18;;
28587;SDS011;15787;49.662;10.162;2023-05-08T00:42:10;10.15;;;5.60;;
28587;SDS011;15787;49.662;10.162;2023-05-08T00:44:43;10.95;;;6.18;;
28587;SDS011;15787;49.662;10.162;2023-05-08T00:47:16;8.50;;;5.72;;
28587;SDS011;15787;49.662;10.162;2023-05-08T00:49:49;7.80;;;5.50;;
28587;SDS011;15787;49.662;10.162;2023-05-08T00:52:24;8.18;;;5.95;;
28587;SDS011;15787;49.662;10.162;2023-05-08T00:54:57;7.68;;;5.40;;
28587;SDS011;15787;49.662;10.162;2023-05-08T00:57:31;9.18;;;5.90;;
28587;SDS011;15787;49.662;10.162;2023-05-08T01:00:06;9.43;;;5.78;;
28587;SDS011;15787;49.662;10.162;2023-05-08T01:02:41;7.75;;;5.97;;
28587;SDS011;15787;49.662;10.162;2023-05-08T01:05:15;9.27;;;6.65;;
28587;SDS011;15787;49.662;10.162;2023-05-08T01:07:49;9.85;;;7.13;;
28587;SDS011;15787;49.662;10.162;2023-05-08T01:10:22;9.07;;;6.82;;
28587;SDS011;15787;49.662;10.162;2023-05-08T01:12:58;9.48;;;6.57;;
28587;SDS011;15787;49.662;10.162;2023-05-08T01:15:51;10.38;;;7.00;;
28587;SDS011;15787;49.662;10.162;2023-05-08T01:18:31;9.73;;;6.90;;
28587;SDS011;15787;49.662;10.162;2023-05-08T01:21:10;8.27;;;5.82;;
28587;SDS011;15787;49.662;10.162;2023-05-08T01:30:36;8.18;;;5.68;;
28587;SDS011;15787;49.662;10.162;2023-05-08T01:33:31;8.35;;;5.80;;
28587;SDS011;15787;49.662;10.162;2023-05-08T01:38:51;8.02;;;6.30;;
28587;SDS011;15787;49.662;10.162;2023-05-08T01:41:27;8.27;;;5.93;;
28587;SDS011;15787;49.662;10.162;2023-05-08T01:44:05;8.18;;;5.50;;
28587;SDS011;15787;49.662;10.162;2023-05-08T01:46:48;12.43;;;6.60;;
28587;SDS011;15787;49.662;10.162;2023-05-08T01:49:24;8.35;;;6.38;;
28587;SDS011;15787;49.662;10.162;2023-05-08T01:52:02;9.88;;;6.20;;
28587;SDS011;15787;49.662;10.162;2023-05-08T01:54:38;7.68;;;5.60;;
28587;SDS011;15787;49.662;10.162;2023-05-08T01:57:16;6.68;;;5.10;;
28587;SDS011;15787;49.662;10.162;2023-05-08T01:59:51;7.03;;;4.75;;
28587;SDS011;15787;49.662;10.162;2023-05-08T02:02:27;7.93;;;5.45;;
28587;SDS011;15787;49.662;10.162;2023-05-08T02:05:04;7.45;;;5.47;;
28587;SDS011;15787;49.662;10.162;2023-05-08T02:07:40;6.38;;;4.80;;
28587;SDS011;15787;49.662;10.162;2023-05-08T02:10:18;7.85;;;5.78;;
28587;SDS011;15787;49.662;10.162;2023-05-08T02:12:53;7.32;;;4.75;;
28587;SDS011;15787;49.662;10.162;2023-05-08T02:15:28;7.78;;;5.65;;
28587;SDS011;15787;49.662;10.162;2023-05-08T02:18:06;6.22;;;5.25;;
28587;SDS011;15787;49.662;10.162;2023-05-08T02:20:42;8.07;;;5.03;;
28587;SDS011;15787;49.662;10.162;2023-05-08T02:23:15;7.40;;;5.35;;
28587;SDS011;15787;49.662;10.162;2023-05-08T02:25:49;8.35;;;5.55;;
28587;SDS011;15787;49.662;10.162;2023-05-08T02:28:24;7.13;;;5.50;;
28587;SDS011;15787;49.662;10.162;2023-05-08T02:30:59;9.18;;;5.38;;
28587;SDS011;15787;49.662;10.162;2023-05-08T02:33:33;7.82;;;5.32;;
28587;SDS011;15787;49.662;10.162;2023-05-08T02:36:08;8.98;;;5.70;;
28587;SDS011;15787;49.662;10.162;2023-05-08T02:38:43;7.32;;;5.35;;
28587;SDS011;15787;49.662;10.162;2023-05-08T02:41:18;7.40;;;5.68;;
28587;SDS011;15787;49.662;10.162;2023-05-08T02:43:53;7.10;;;5.30;;
28587;SDS011;15787;49.662;10.162;2023-05-08T02:46:28;8.27;;;5.80;;
28587;SDS011;15787;49.662;10.162;2023-05-08T02:49:09;7.10;;;5.72;;
28587;SDS011;15787;49.662;10.162;2023-05-08T02:51:54;10.73;;;5.25;;
28587;SDS011;15787;49.662;10.162;2023-05-08T02:54:35;8.43;;;6.22;;
28587;SDS011;15787;49.662;10.162;2023-05-08T02:57:17;7.00;;;5.70;;
28587;SDS011;15787;49.662;10.162;2023-05-08T02:59:59;7.60;;;5.97;;
28587;SDS011;15787;49.662;10.162;2023-05-08T03:02:38;8.77;;;5.72;;
28587;SDS011;15787;49.662;10.162;2023-05-08T03:05:14;7.05;;;5.70;;
28587;SDS011;15787;49.662;10.162;2023-05-08T03:07:53;7.70;;;5.68;;
28587;SDS011;15787;49.662;10.162;2023-05-08T03:10:30;6.50;;;5.40;;
28587;SDS011;15787;49.662;10.162;2023-05-08T03:13:06;8.80;;;5.95;;
28587;SDS011;15787;49.662;10.162;2023-05-08T03:15:42;7.90;;;5.75;;
28587;SDS011;15787;49.662;10.162;2023-05-08T03:18:18;7.85;;;5.88;;
28587;SDS011;15787;49.662;10.162;2023-05-08T03:20:53;8.45;;;5.78;;
28587;SDS011;15787;49.662;10.162;2023-05-08T03:23:29;8.77;;;5.70;;
28587;SDS011;15787;49.662;10.162;2023-05-08T03:26:05;8.13;;;5.70;;
28587;SDS011;15787;49.662;10.162;2023-05-08T03:28:40;6.88;;;5.70;;
28587;SDS011;15787;49.662;10.162;2023-05-08T03:31:13;7.70;;;5.63;;
28587;SDS011;15787;49.662;10.162;2023-05-08T03:33:49;7.97;;;5.82;;
28587;SDS011;15787;49.662;10.162;2023-05-08T03:36:25;8.15;;;5.70;;
28587;SDS011;15787;49.662;10.162;2023-05-08T03:39:00;8.63;;;5.72;;
28587;SDS011;15787;49.662;10.162;2023-05-08T03:41:34;8.75;;;6.43;;
28587;SDS011;15787;49.662;10.162;2023-05-08T03:44:07;7.85;;;5.55;;
28587;SDS011;15787;49.662;10.162;2023-05-08T03:46:41;10.40;;;6.32;;
28587;SDS011;15787;49.662;10.162;2023-05-08T03:49:14;8.43;;;6.72;;
28587;SDS011;15787;49.662;10.162;2023-05-08T03:51:49;8.27;;;6.22;;
28587;SDS011;15787;49.662;10.162;2023-05-08T03:54:24;10.00;;;6.90;;
28587;SDS011;15787;49.662;10.162;2023-05-08T03:56:59;9.50;;;6.60;;
28587;SDS011;15787;49.662;10.162;2023-05-08T03:59:34;7.47;;;6.15;;
28587;SDS011;15787;49.662;10.162;2023-05-08T04:02:16;7.53;;;5.88;;
28587;SDS011;15787;49.662;10.162;2023-05-08T04:04:58;9.45;;;6.45;;
28587;SDS011;15787;49.662;10.162;2023-05-08T04:07:36;8.20;;;6.07;;
28587;SDS011;15787;49.662;10.162;2023-05-08T04:10:20;10.05;;;7.30;;
28587;SDS011;15787;49.662;10.162;2023-05-08T04:13:00;7.90;;;6.28;;
28587;SDS011;15787;49.662;10.162;2023-05-08T04:15:47;7.40;;;5.88;;
28587;SDS011;15787;49.662;10.162;2023-05-08T04:18:27;8.48;;;5.95;;
28587;SDS011;15787;49.662;10.162;2023-05-08T04:21:05;10.48;;;6.22;;
28587;SDS011;15787;49.662;10.162;2023-05-08T04:23:41;7.80;;;6.00;;
28587;SDS011;15787;49.662;10.162;2023-05-08T04:26:18;9.63;;;6.78;;
28587;SDS011;15787;49.662;10.162;2023-05-08T04:28:54;7.60;;;5.80;;
28587;SDS011;15787;49.662;10.162;2023-05-08T04:31:28;8.93;;;6.07;;
28587;SDS011;15787;49.662;10.162;2023-05-08T04:34:02;8.75;;;5.88;;
28587;SDS011;15787;49.662;10.162;2023-05-08T04:36:36;6.68;;;5.43;;
28587;SDS011;15787;49.662;10.162;2023-05-08T04:39:10;7.82;;;5.75;;
28587;SDS011;15787;49.662;10.162;2023-05-08T04:41:45;8.95;;;5.90;;
28587;SDS011;15787;49.662;10.162;2023-05-08T04:44:19;8.48;;;5.93;;
28587;SDS011;15787;49.662;10.162;2023-05-08T04:46:52;9.52;;;6.25;;
28587;SDS011;15787;49.662;10.162;2023-05-08T04:49:25;10.57;;;7.47;;
28587;SDS011;15787;49.662;10.162;2023-05-08T04:51:58;8.77;;;6.70;;
28587;SDS011;15787;49.662;10.162;2023-05-08T04:54:31;8.70;;;7.05;;
28587;SDS011;15787;49.662;10.162;2023-05-08T04:57:05;9.27;;;6.30;;
28587;SDS011;15787;49.662;10.162;2023-05-08T04:59:39;7.53;;;5.95;;
28587;SDS011;15787;49.662;10.162;2023-05-08T05:02:11;9.60;;;7.28;;
28587;SDS011;15787;49.662;10.162;2023-05-08T05:04:45;10.52;;;6.82;;
28587;SDS011;15787;49.662;10.162;2023-05-08T05:07:18;9.30;;;6.68;;
28587;SDS011;15787;49.662;10.162;2023-05-08T05:09:51;10.25;;;7.22;;
28587;SDS011;15787;49.662;10.162;2023-05-08T05:12:25;8.82;;;6.80;;
28587;SDS011;15787;49.662;10.162;2023-05-08T05:14:59;9.02;;;6.57;;
28587;SDS011;15787;49.662;10.162;2023-05-08T05:17:35;9.32;;;6.97;;
28587;SDS011;15787;49.662;10.162;2023-05-08T05:20:09;11.25;;;7.68;;
28587;SDS011;15787;49.662;10.162;2023-05-08T05:22:43;12.55;;;6.95;;
28587;SDS011;15787;49.662;10.162;2023-05-08T05:25:16;9.65;;;7.40;;
28587;SDS011;15787;49.662;10.162;2023-05-08T05:27:50;10.48;;;7.47;;
28587;SDS011;15787;49.662;10.162;2023-05-08T05:30:23;8.68;;;6.45;;
28587;SDS011;15787;49.662;10.162;2023-05-08T05:32:56;9.88;;;7.35;;
28587;SDS011;15787;49.662;10.162;2023-05-08T05:35:29;11.30;;;7.45;;
28587;SDS011;15787;49.662;10.162;2023-05-08T05:38:02;8.82;;;6.80;;
28587;SDS011;15787;49.662;10.162;2023-05-08T05:40:35;12.05;;;7.10;;
28587;SDS011;15787;49.662;10.162;2023-05-08T05:43:10;9.48;;;6.70;;
28587;SDS011;15787;49.662;10.162;2023-05-08T05:45:43;9.23;;;6.85;;
28587;SDS011;15787;49.662;10.162;2023-05-08T05:48:17;9.10;;;6.82;;
28587;SDS011;15787;49.662;10.162;2023-05-08T05:50:50;9.35;;;6.95;;
28587;SDS011;15787;49.662;10.162;2023-05-08T05:53:23;9.68;;;7.57;;
28587;SDS011;15787;49.662;10.162;2023-05-08T05:55:56;10.38;;;7.28;;
28587;SDS011;15787;49.662;10.162;2023-05-08T05:58:31;10.05;;;7.30;;
28587;SDS011;15787;49.662;10.162;2023-05-08T06:01:04;10.80;;;7.32;;
28587;SDS011;15787;49.662;10.162;2023-05-08T06:03:37;9.00;;;7.05;;
28587;SDS011;15787;49.662;10.162;2023-05-08T06:06:10;8.43;;;6.55;;
28587;SDS011;15787;49.662;10.162;2023-05-08T06:08:43;10.90;;;7.35;;
28587;SDS011;15787;49.662;10.162;2023-05-08T06:11:17;8.82;;;6.63;;
28587;SDS011;15787;49.662;10.162;2023-05-08T06:13:51;9.52;;;7.22;;
28587;SDS011;15787;49.662;10.162;2023-05-08T06:16:24;11.30;;;7.13;;
28587;SDS011;15787;49.662;10.162;2023-05-08T06:18:57;8.38;;;6.22;;
28587;SDS011;15787;49.662;10.162;2023-05-08T06:21:30;10.13;;;6.22;;
28587;SDS011;15787;49.662;10.162;2023-05-08T06:24:04;8.88;;;7.00;;
28587;SDS011;15787;49.662;10.162;2023-05-08T06:26:38;12.10;;;7.25;;
28587;SDS011;15787;49.662;10.162;2023-05-08T06:29:13;10.65;;;6.85;;
28587;SDS011;15787;49.662;10.162;2023-05-08T06:31:46;10.10;;;6.82;;
28587;SDS011;15787;49.662;10.162;2023-05-08T06:34:19;7.28;;;5.93;;
28587;SDS011;15787;49.662;10.162;2023-05-08T06:36:52;11.40;;;7.38;;
28587;SDS011;15787;49.662;10.162;2023-05-08T06:39:25;11.77;;;6.72;;
28587;SDS011;15787;49.662;10.162;2023-05-08T06:41:58;8.18;;;6.82;;
28587;SDS011;15787;49.662;10.162;2023-05-08T06:44:36;10.55;;;7.43;;
28587;SDS011;15787;49.662;10.162;2023-05-08T06:47:09;9.30;;;6.60;;
28587;SDS011;15787;49.662;10.162;2023-05-08T06:49:42;10.65;;;7.75;;
28587;SDS011;15787;49.662;10.162;2023-05-08T06:52:15;9.80;;;7.63;;
28587;SDS011;15787;49.662;10.162;2023-05-08T06:54:48;9.73;;;7.00;;
28587;SDS011;15787;49.662;10.162;2023-05-08T06:57:21;9.48;;;7.07;;
28587;SDS011;15787;49.662;10.162;2023-05-08T06:59:56;8.90;;;6.93;;
28587;SDS011;15787;49.662;10.162;2023-05-08T07:02:29;10.00;;;7.57;;
28587;SDS011;15787;49.662;10.162;2023-05-08T07:05:02;9.77;;;7.47;;
28587;SDS011;15787;49.662;10.162;2023-05-08T07:07:35;10.48;;;7.30;;
28587;SDS011;15787;49.662;10.162;2023-05-08T07:10:08;10.13;;;7.75;;
28587;SDS011;15787;49.662;10.162;2023-05-08T07:12:42;11.18;;;7.20;;
28587;SDS011;15787;49.662;10.162;2023-05-08T07:15:16;10.57;;;7.82;;
28587;SDS011;15787;49.662;10.162;2023-05-08T07:17:57;9.07;;;7.38;;
28587;SDS011;15787;49.662;10.162;2023-05-08T07:20:30;10.02;;;7.32;;
28587;SDS011;15787;49.662;10.162;2023-05-08T07:23:02;11.75;;;7.55;;
28587;SDS011;15787;49.662;10.162;2023-05-08T07:25:35;10.90;;;7.55;;
28587;SDS011;15787;49.662;10.162;2023-05-08T07:28:08;13.20;;;7.90;;
28587;SDS011;15787;49.662;10.162;2023-05-08T07:30:42;11.60;;;8.40;;
28587;SDS011;15787;49.662;10.162;2023-05-08T07:33:15;11.48;;;8.50;;
28587;SDS011;15787;49.662;10.162;2023-05-08T07:35:49;11.48;;;8.30;;
28587;SDS011;15787;49.662;10.162;2023-05-08T07:38:21;10.35;;;8.02;;
28587;SDS011;15787;49.662;10.162;2023-05-08T07:40:55;11.25;;;8.20;;
28587;SDS011;15787;49.662;10.162;2023-05-08T07:43:30;13.65;;;8.43;;
28587;SDS011;15787;49.662;10.162;2023-05-08T07:46:05;10.50;;;7.88;;
28587;SDS011;15787;49.662;10.162;2023-05-08T07:48:38;12.77;;;8.10;;
28587;SDS011;15787;49.662;10.162;2023-05-08T07:51:11;11.38;;;8.57;;
28587;SDS011;15787;49.662;10.162;2023-05-08T07:53:45;11.13;;;8.15;;
28587;SDS011;15787;49.662;10.162;2023-05-08T07:56:19;10.55;;;7.82;;
28587;SDS011;15787;49.662;10.162;2023-05-08T07:58:52;12.20;;;8.25;;
28587;SDS011;15787;49.662;10.162;2023-05-08T08:01:26;10.85;;;8.52;;
28587;SDS011;15787;49.662;10.162;2023-05-08T08:03:59;9.90;;;7.47;;
28587;SDS011;15787;49.662;10.162;2023-05-08T08:06:32;9.48;;;7.78;;
28587;SDS011;15787;49.662;10.162;2023-05-08T08:09:05;10.18;;;7.22;;
28587;SDS011;15787;49.662;10.162;2023-05-08T08:11:38;10.10;;;7.43;;
28587;SDS011;15787;49.662;10.162;2023-05-08T08:14:11;9.65;;;6.80;;
28587;SDS011;15787;49.662;10.162;2023-05-08T08:16:46;9.85;;;7.13;;
28587;SDS011;15787;49.662;10.162;2023-05-08T08:19:19;10.45;;;7.53;;
28587;SDS011;15787;49.662;10.162;2023-05-08T08:21:52;9.82;;;6.82;;
28587;SDS011;15787;49.662;10.162;2023-05-08T08:24:25;11.15;;;7.68;;
28587;SDS011;15787;49.662;10.162;2023-05-08T08:26:59;10.05;;;7.68;;
28587;SDS011;15787;49.662;10.162;2023-05-08T08:29:32;9.90;;;7.47;;
28587;SDS011;15787;49.662;10.162;2023-05-08T08:32:07;10.98;;;7.22;;
28587;SDS011;15787;49.662;10.162;2023-05-08T08:34:40;11.48;;;8.57;;
28587;SDS011;15787;49.662;10.162;2023-05-08T08:37:13;8.60;;;6.97;;
28587;SDS011;15787;49.662;10.162;2023-05-08T08:39:46;11.60;;;7.82;;
28587;SDS011;15787;49.662;10.162;2023-05-08T08:42:19;9.90;;;7.55;;
28587;SDS011;15787;49.662;10.162;2023-05-08T08:44:54;9.80;;;7.55;;
28587;SDS011;15787;49.662;10.162;2023-05-08T08:47:28;11.48;;;8.07;;
28587;SDS011;15787;49.662;10.162;2023-05-08T08:50:08;9.93;;;7.00;;
28587;SDS011;15787;49.662;10.162;2023-05-08T08:52:46;12.82;;;7.85;;
28587;SDS011;15787;49.662;10.162;2023-05-08T08:55:25;10.27;;;8.15;;
28587;SDS011;15787;49.662;10.162;2023-05-08T08:58:05;10.80;;;8.00;;
28587;SDS011;15787;49.662;10.162;2023-05-08T09:00:45;11.07;;;7.28;;
28587;SDS011;15787;49.662;10.162;2023-05-08T09:03:20;11.13;;;7.10;;
28587;SDS011;15787;49.662;10.162;2023-05-08T09:05:54;14.70;;;8.13;;
28587;SDS011;15787;49.662;10.162;2023-05-08T09:08:27;10.32;;;7.60;;
28587;SDS011;15787;49.662;10.162;2023-05-08T09:11:01;11.98;;;8.07;;
28587;SDS011;15787;49.662;10.162;2023-05-08T09:13:34;12.13;;;8.13;;
28587;SDS011;15787;49.662;10.162;2023-05-08T09:16:07;9.23;;;7.28;;
28587;SDS011;15787;49.662;10.162;2023-05-08T09:18:41;10.88;;;8.52;;
28587;SDS011;15787;49.662;10.162;2023-05-08T09:21:14;11.63;;;7.95;;
28587;SDS011;15787;49.662;10.162;2023-05-08T09:23:54;10.07;;;7.90;;
28587;SDS011;15787;49.662;10.162;2023-05-08T09:26:28;9.32;;;7.57;;
28587;SDS011;15787;49.662;10.162;2023-05-08T09:29:12;10.35;;;7.20;;
28587;SDS011;15787;49.662;10.162;2023-05-08T09:31:47;9.57;;;7.68;;
28587;SDS011;15787;49.662;10.162;2023-05-08T09:34:22;12.60;;;7.72;;
28587;SDS011;15787;49.662;10.162;2023-05-08T09:37:09;14.23;;;8.57;;
28587;SDS011;15787;49.662;10.162;2023-05-08T09:39:44;10.68;;;8.45;;
28587;SDS011;15787;49.662;10.162;2023-05-08T09:42:18;11.38;;;8.23;;
28587;SDS011;15787;49.662;10.162;2023-05-08T09:44:51;10.45;;;8.50;;
28587;SDS011;15787;49.662;10.162;2023-05-08T09:47:25;11.55;;;8.95;;
28587;SDS011;15787;49.662;10.162;2023-05-08T09:50:00;11.98;;;8.20;;
28587;SDS011;15787;49.662;10.162;2023-05-08T09:52:35;10.85;;;8.35;;
28587;SDS011;15787;49.662;10.162;2023-05-08T09:55:09;11.23;;;8.50;;
28587;SDS011;15787;49.662;10.162;2023-05-08T09:57:50;10.10;;;8.23;;
28587;SDS011;15787;49.662;10.162;2023-05-08T10:00:25;11.95;;;8.35;;
28587;SDS011;15787;49.662;10.162;2023-05-08T10:03:00;13.30;;;9.32;;
28587;SDS011;15787;49.662;10.162;2023-05-08T10:05:36;12.50;;;7.90;;
28587;SDS011;15787;49.662;10.162;2023-05-08T10:08:18;10.40;;;8.05;;
28587;SDS011;15787;49.662;10.162;2023-05-08T10:10:52;11.60;;;8.02;;
28587;SDS011;15787;49.662;10.162;2023-05-08T10:13:25;13.70;;;8.02;;
28587;SDS011;15787;49.662;10.162;2023-05-08T10:15:58;11.32;;;8.88;;
28587;SDS011;15787;49.662;10.162;2023-05-08T10:18:32;10.90;;;8.65;;
28587;SDS011;15787;49.662;10.162;2023-05-08T10:21:09;11.25;;;9.00;;
28587;SDS011;15787;49.662;10.162;2023-05-08T10:23:42;12.02;;;8.70;;
28587;SDS011;15787;49.662;10.162;2023-05-08T10:26:18;14.40;;;8.15;;
28587;SDS011;15787;49.662;10.162;2023-05-08T10:28:57;11.50;;;9.00;;
28587;SDS011;15787;49.662;10.162;2023-05-08T10:31:35;14.77;;;8.80;;
28587;SDS011;15787;49.662;10.162;2023-05-08T10:34:12;11.43;;;8.95;;
28587;SDS011;15787;49.662;10.162;2023-05-08T10:36:51;12.45;;;8.85;;
28587;SDS011;15787;49.662;10.162;2023-05-08T10:39:24;12.23;;;8.23;;
28587;SDS011;15787;49.662;10.162;2023-05-08T10:41:58;12.65;;;8.95;;
28587;SDS011;15787;49.662;10.162;2023-05-08T10:44:31;14.90;;;9.98;;
28587;SDS011;15787;49.662;10.162;2023-05-08T10:47:07;14.10;;;10.00;;
28587;SDS011;15787;49.662;10.162;2023-05-08T10:49:48;12.27;;;9.30;;
28587;SDS011;15787;49.662;10.162;2023-05-08T10:52:33;11.43;;;9.15;;
28587;SDS011;15787;49.662;10.162;2023-05-08T10:55:21;13.18;;;10.15;;
28587;SDS011;15787;49.662;10.162;2023-05-08T10:58:08;13.10;;;9.95;;
28587;SDS011;15787;49.662;10.162;2023-05-08T11:03:45;12.15;;;9.13;;
28587;SDS011;15787;49.662;10.162;2023-05-08T11:09:19;16.02;;;10.02;;
28587;SDS011;15787;49.662;10.162;2023-05-08T11:11:57;14.57;;;10.30;;
28587;SDS011;15787;49.662;10.162;2023-05-08T11:14:36;13.25;;;10.02;;
28587;SDS011;15787;49.662;10.162;2023-05-08T11:17:13;13.85;;;10.65;;
28587;SDS011;15787;49.662;10.162;2023-05-08T11:19:55;16.27;;;9.95;;
28587;SDS011;15787;49.662;10.162;2023-05-08T11:22:30;13.02;;;10.38;;
28587;SDS011;15787;49.662;10.162;2023-05-08T11:25:06;13.65;;;10.73;;
28587;SDS011;15787;49.662;10.162;2023-05-08T11:30:44;14.63;;;11.23;;
28587;SDS011;15787;49.662;10.162;2023-05-08T11:33:18;14.55;;;11.15;;
28587;SDS011;15787;49.662;10.162;2023-05-08T11:35:52;13.70;;;9.95;;
28587;SDS011;15787;49.662;10.162;2023-05-08T11:38:27;12.93;;;10.23;;
28587;SDS011;15787;49.662;10.162;2023-05-08T11:41:04;14.60;;;10.85;;
28587;SDS011;15787;49.662;10.162;2023-05-08T11:44:02;14.60;;;10.35;;
28587;SDS011;15787;49.662;10.162;2023-05-08T11:46:49;15.52;;;11.75;;
28587;SDS011;15787;49.662;10.162;2023-05-08T11:49:23;13.73;;;10.80;;
28587;SDS011;15787;49.662;10.162;2023-05-08T11:52:00;13.43;;;10.30;;
28587;SDS011;15787;49.662;10.162;2023-05-08T11:54:36;15.60;;;10.82;;
28587;SDS011;15787;49.662;10.162;2023-05-08T11:57:10;13.57;;;11.05;;
28587;SDS011;15787;49.662;10.162;2023-05-08T11:59:43;13.32;;;10.57;;
28587;SDS011;15787;49.662;10.162;2023-05-08T12:02:32;14.25;;;11.00;;
28587;SDS011;15787;49.662;10.162;2023-05-08T12:05:07;14.65;;;10.88;;
28587;SDS011;15787;49.662;10.162;2023-05-08T12:07:42;13.90;;;11.07;;
28587;SDS011;15787;49.662;10.162;2023-05-08T12:10:16;16.95;;;12.05;;
28587;SDS011;15787;49.662;10.162;2023-05-08T12:12:51;15.13;;;11.07;;
28587;SDS011;15787;49.662;10.162;2023-05-08T12:15:25;15.73;;;11.80;;
28587;SDS011;15787;49.662;10.162;2023-05-08T12:18:00;17.13;;;12.18;;
28587;SDS011;15787;49.662;10.162;2023-05-08T12:20:33;16.63;;;12.40;;
28587;SDS011;15787;49.662;10.162;2023-05-08T12:23:06;16.30;;;11.27;;
28587;SDS011;15787;49.662;10.162;2023-05-08T12:25:40;16.02;;;11.45;;
28587;SDS011;15787;49.662;10.162;2023-05-08T12:28:15;15.23;;;11.57;;
28587;SDS011;15787;49.662;10.162;2023-05-08T12:30:47;16.17;;;11.85;;
28587;SDS011;15787;49.662;10.162;2023-05-08T12:34:47;17.65;;;12.10;;
28587;SDS011;15787;49.662;10.162;2023-05-08T12:38:01;19.58;;;12.65;;
28587;SDS011;15787;49.662;10.162;2023-05-08T12:40:56;17.08;;;12.73;;
28587;SDS011;15787;49.662;10.162;2023-05-08T12:48:13;16.90;;;12.60;;
28587;SDS011;15787;49.662;10.162;2023-05-08T12:55:51;16.38;;;12.63;;
28587;SDS011;15787;49.662;10.162;2023-05-08T13:11:28;17.35;;;12.65;;
28587;SDS011;15787;49.662;10.162;2023-05-08T13:14:29;17.38;;;13.20;;
28587;SDS011;15787;49.662;10.162;2023-05-08T13:17:02;16.05;;;12.57;;
28587;SDS011;15787;49.662;10.162;2023-05-08T13:19:35;16.92;;;12.18;;
28587;SDS011;15787;49.662;10.162;2023-05-08T13:22:08;15.35;;;12.13;;
28587;SDS011;15787;49.662;10.162;2023-05-08T13:24:41;14.70;;;11.52;;
28587;SDS011;15787;49.662;10.162;2023-05-08T13:27:15;16.95;;;12.13;;
28587;SDS011;15787;49.662;10.162;2023-05-08T13:29:48;15.48;;;11.60;;
28587;SDS011;15787;49.662;10.162;2023-05-08T13:32:21;14.82;;;11.20;;
28587;SDS011;15787;49.662;10.162;2023-05-08T13:34:54;15.88;;;12.13;;
28587;SDS011;15787;49.662;10.162;2023-05-08T13:37:31;16.33;;;11.65;;
28587;SDS011;15787;49.662;10.162;2023-05-08T13:40:04;16.27;;;11.18;;
28587;SDS011;15787;49.662;10.162;2023-05-08T13:42:41;13.90;;;10.70;;
28587;SDS011;15787;49.662;10.162;2023-05-08T13:45:14;14.55;;;11.25;;
28587;SDS011;15787;49.662;10.162;2023-05-08T13:47:49;14.13;;;10.73;;
28587;SDS011;15787;49.662;10.162;2023-05-08T13:50:22;14.77;;;11.27;;
28587;SDS011;15787;49.662;10.162;2023-05-08T13:52:55;15.05;;;11.30;;
28587;SDS011;15787;49.662;10.162;2023-05-08T13:55:28;14.57;;;10.88;;
28587;SDS011;15787;49.662;10.162;2023-05-08T13:58:02;14.52;;;11.02;;
28587;SDS011;15787;49.662;10.162;2023-05-08T14:00:35;13.82;;;10.55;;
28587;SDS011;15787;49.662;10.162;2023-05-08T14:03:08;13.65;;;11.23;;
28587;SDS011;15787;49.662;10.162;2023-05-08T14:05:41;16.85;;;11.95;;
28587;SDS011;15787;49.662;10.162;2023-05-08T14:08:14;15.07;;;11.20;;
28587;SDS011;15787;49.662;10.162;2023-05-08T14:10:47;16.00;;;12.20;;
28587;SDS011;15787;49.662;10.162;2023-05-08T14:13:21;18.85;;;11.55;;
28587;SDS011;15787;49.662;10.162;2023-05-08T14:15:54;15.10;;;10.45;;
28587;SDS011;15787;49.662;10.162;2023-05-08T14:18:27;17.83;;;10.80;;
28587;SDS011;15787;49.662;10.162;2023-05-08T14:21:00;17.10;;;12.25;;
28587;SDS011;15787;49.662;10.162;2023-05-08T14:23:35;20.20;;;11.20;;
28587;SDS011;15787;49.662;10.162;2023-05-08T14:26:09;16.45;;;10.98;;
28587;SDS011;15787;49.662;10.162;2023-05-08T14:28:44;14.25;;;10.85;;
28587;SDS011;15787;49.662;10.162;2023-05-08T14:31:17;16.70;;;11.40;;
28587;SDS011;15787;49.662;10.162;2023-05-08T14:33:50;15.55;;;11.43;;
28587;SDS011;15787;49.662;10.162;2023-05-08T14:36:23;17.13;;;11.27;;
28587;SDS011;15787;49.662;10.162;2023-05-08T14:38:57;13.93;;;10.88;;
28587;SDS011;15787;49.662;10.162;2023-05-08T14:41:31;15.13;;;10.77;;
28587;SDS011;15787;49.662;10.162;2023-05-08T14:44:05;15.13;;;11.27;;
28587;SDS011;15787;49.662;10.162;2023-05-08T14:46:38;14.48;;;11.52;;
28587;SDS011;15787;49.662;10.162;2023-05-08T14:49:11;16.83;;;11.38;;
28587;SDS011;15787;49.662;10.162;2023-05-08T14:51:52;16.88;;;11.68;;
28587;SDS011;15787;49.662;10.162;2023-05-08T14:54:25;17.05;;;12.88;;
28587;SDS011;15787;49.662;10.162;2023-05-08T14:56:58;15.82;;;12.13;;
28587;SDS011;15787;49.662;10.162;2023-05-08T14:59:33;15.68;;;12.25;;
28587;SDS011;15787;49.662;10.162;2023-05-08T15:02:06;19.63;;;12.63;;
28587;SDS011;15787;49.662;10.162;2023-05-08T15:04:39;15.27;;;12.38;;
28587;SDS011;15787;49.662;10.162;2023-05-08T15:07:12;15.57;;;11.88;;
28587;SDS011;15787;49.662;10.162;2023-05-08T15:09:45;15.00;;;10.82;;
28587;SDS011;15787;49.662;10.162;2023-05-08T15:12:19;14.30;;;10.85;;
28587;SDS011;15787;49.662;10.162;2023-05-08T15:14:53;15.30;;;10.77;;
28587;SDS011;15787;49.662;10.162;2023-05-08T15:17:26;13.82;;;10.40;;
28587;SDS011;15787;49.662;10.162;2023-05-08T15:19:59;18.17;;;11.40;;
28587;SDS011;15787;49.662;10.162;2023-05-08T15:22:32;14.15;;;10.70;;
28587;SDS011;15787;49.662;10.162;2023-05-08T15:25:05;18.90;;;11.60;;
28587;SDS011;15787;49.662;10.162;2023-05-08T15:27:38;15.27;;;10.90;;
28587;SDS011;15787;49.662;10.162;2023-05-08T15:30:14;15.68;;;12.07;;
28587;SDS011;15787;49.662;10.162;2023-05-08T15:32:47;14.52;;;11.35;;
28587;SDS011;15787;49.662;10.162;2023-05-08T15:35:20;14.90;;;11.20;;
28587;SDS011;15787;49.662;10.162;2023-05-08T15:37:53;17.25;;;10.85;;
28587;SDS011;15787;49.662;10.162;2023-05-08T15:40:25;15.95;;;11.32;;
28587;SDS011;15787;49.662;10.162;2023-05-08T15:42:58;13.43;;;10.52;;
28587;SDS011;15787;49.662;10.162;2023-05-08T15:45:33;16.65;;;10.75;;
28587;SDS011;15787;49.662;10.162;2023-05-08T15:48:05;16.73;;;10.73;;
28587;SDS011;15787;49.662;10.162;2023-05-08T15:50:38;14.57;;;10.68;;
28587;SDS011;15787;49.662;10.162;2023-05-08T15:53:11;14.77;;;10.18;;